createdAt,value
2023-03-02T00:01:43.789Z,3.80
2023-03-02T00:04:13.569Z,3.50
2023-03-02T00:06:40.220Z,3.50
2023-03-02T00:09:06.895Z,3.50
2023-03-02T00:11:35.349Z,3.40
2023-03-02T00:14:02.014Z,3.20
2023-03-02T00:16:28.719Z,3.40
2023-03-02T00:18:55.303Z,3.40
2023-03-02T00:21:24.039Z,3.40
2023-03-02T00:23:51.660Z,3.40
2023-03-02T00:26:18.251Z,3.50
2023-03-02T00:28:44.903Z,3.40
2023-03-02T00:31:11.481Z,3.40
2023-03-02T00:33:38.081Z,3.40
2023-03-02T00:36:04.935Z,3.40
2023-03-02T00:38:31.688Z,3.40
2023-03-02T00:40:59.466Z,3.40
2023-03-02T00:43:28.017Z,3.30
2023-03-02T00:45:55.219Z,3.40
2023-03-02T00:48:22.176Z,3.30
2023-03-02T00:50:48.785Z,3.20
2023-03-02T00:53:15.402Z,3.30
2023-03-02T00:55:42.053Z,3.30
2023-03-02T00:58:08.697Z,3.30
2023-03-02T01:00:37.137Z,3.30
2023-03-02T01:03:03.873Z,3.90
2023-03-02T01:05:30.617Z,3.30
2023-03-02T01:07:57.237Z,3.30
2023-03-02T01:10:23.859Z,3.20
2023-03-02T01:12:50.487Z,3.20
2023-03-02T01:15:17.122Z,3.20
2023-03-02T01:17:44.016Z,3.40
2023-03-02T01:20:11.706Z,3.80
2023-03-02T01:22:38.315Z,3.30
2023-03-02T01:25:05.234Z,3.30
2023-03-02T01:27:32.000Z,3.30
2023-03-02T01:29:58.793Z,3.20
2023-03-02T01:32:25.577Z,3.20
2023-03-02T01:34:52.252Z,3.20
2023-03-02T01:37:20.673Z,3.30
2023-03-02T01:39:47.314Z,3.20
2023-03-02T01:42:13.964Z,3.20
2023-03-02T01:44:51.199Z,3.30
2023-03-02T01:47:26.790Z,3.20
2023-03-02T01:49:56.718Z,3.20
2023-03-02T01:52:24.070Z,3.20
2023-03-02T01:54:51.872Z,3.30
2023-03-02T01:57:23.374Z,3.20
2023-03-02T01:59:53.304Z,3.20
2023-03-02T02:02:20.042Z,3.10
2023-03-02T02:04:47.478Z,3.70
2023-03-02T02:07:14.406Z,3.00
2023-03-02T02:09:43.446Z,3.00
2023-03-02T02:12:14.637Z,3.20
2023-03-02T02:14:41.728Z,3.10
2023-03-02T02:17:08.549Z,3.00
2023-03-02T02:19:53.778Z,3.30
2023-03-02T02:22:27.018Z,3.00
2023-03-02T02:24:57.305Z,3.00
2023-03-02T02:27:29.768Z,3.00
2023-03-02T02:29:58.337Z,3.40
2023-03-02T02:32:26.717Z,3.10
2023-03-02T02:34:53.520Z,3.00
2023-03-02T02:37:22.821Z,2.90
2023-03-02T02:39:50.152Z,2.90
2023-03-02T02:42:34.406Z,2.90
2023-03-02T02:45:02.703Z,2.90
2023-03-02T02:47:29.541Z,2.80
2023-03-02T02:49:56.768Z,2.90
2023-03-02T02:52:25.306Z,2.90
2023-03-02T02:54:53.681Z,2.90
2023-03-02T02:57:21.829Z,2.80
2023-03-02T02:59:49.614Z,2.80
2023-03-02T03:02:20.860Z,2.80
2023-03-02T03:04:47.658Z,2.70
2023-03-02T03:07:22.251Z,2.70
2023-03-02T03:09:53.300Z,2.70
2023-03-02T03:12:21.917Z,3.10
2023-03-02T03:14:49.070Z,2.80
2023-03-02T03:17:15.793Z,2.70
2023-03-02T03:19:43.821Z,2.80
2023-03-02T03:22:14.068Z,3.40
2023-03-02T03:24:42.150Z,2.70
2023-03-02T03:27:09.772Z,2.80
2023-03-02T03:29:37.833Z,2.60
2023-03-02T03:32:04.910Z,2.60
2023-03-02T03:34:31.998Z,2.70
2023-03-02T03:37:01.788Z,2.70
2023-03-02T03:39:29.210Z,2.70
2023-03-02T03:41:55.842Z,2.70
2023-03-02T03:44:22.993Z,3.40
2023-03-02T03:46:49.737Z,2.70
2023-03-02T03:49:16.364Z,2.70
2023-03-02T03:51:42.964Z,2.70
2023-03-02T03:54:09.746Z,2.70
2023-03-02T03:56:38.460Z,2.70
2023-03-02T03:59:07.522Z,2.70
2023-03-02T04:01:36.352Z,2.70
2023-03-02T04:04:03.550Z,2.70
2023-03-02T04:06:30.397Z,2.70
2023-03-02T04:08:57.274Z,2.60
2023-03-02T04:11:23.918Z,2.60
2023-03-02T04:13:50.551Z,2.80
2023-03-02T04:16:17.321Z,3.20
2023-03-02T04:18:43.972Z,2.50
2023-03-02T04:21:10.629Z,2.50
2023-03-02T04:23:37.257Z,3.10
2023-03-02T04:26:05.231Z,2.30
2023-03-02T04:28:32.602Z,2.40
2023-03-02T04:30:59.271Z,2.30
2023-03-02T04:33:25.862Z,2.20
2023-03-02T04:35:54.567Z,2.40
2023-03-02T04:38:21.856Z,2.70
2023-03-02T04:40:48.701Z,2.50
2023-03-02T04:43:15.708Z,2.60
2023-03-02T04:45:42.311Z,2.60
2023-03-02T04:48:08.995Z,2.60
2023-03-02T04:50:35.887Z,2.80
2023-03-02T04:53:02.889Z,3.00
2023-03-02T04:55:29.556Z,2.60
2023-03-02T04:57:56.318Z,2.70
2023-03-02T05:00:23.093Z,2.70
2023-03-02T05:02:49.803Z,2.70
2023-03-02T05:05:17.734Z,3.40
2023-03-02T05:07:44.878Z,2.80
2023-03-02T05:10:12.143Z,2.80
2023-03-02T05:12:57.447Z,2.80
2023-03-02T05:15:29.091Z,3.40
2023-03-02T05:17:55.850Z,2.80
2023-03-02T05:20:27.398Z,2.70
2023-03-02T05:22:55.710Z,2.70
2023-03-02T05:25:22.487Z,2.70
2023-03-02T05:27:49.418Z,2.70
2023-03-02T05:30:16.675Z,2.70
2023-03-02T05:32:43.302Z,2.70
2023-03-02T05:35:09.895Z,3.30
2023-03-02T05:37:36.552Z,2.70
2023-03-02T05:40:03.569Z,3.40
2023-03-02T05:42:30.774Z,2.70
2023-03-02T05:44:57.368Z,2.70
2023-03-02T05:47:23.977Z,2.70
2023-03-02T05:49:50.597Z,2.70
2023-03-02T05:52:17.235Z,2.70
2023-03-02T05:54:43.823Z,2.70
2023-03-02T05:57:10.466Z,2.80
2023-03-02T05:59:37.104Z,2.60
2023-03-02T06:02:04.427Z,2.60
2023-03-02T06:04:31.267Z,2.70
2023-03-02T06:06:58.021Z,2.70
2023-03-02T06:09:24.829Z,2.70
2023-03-02T06:11:51.594Z,2.80
2023-03-02T06:14:18.266Z,2.80
2023-03-02T06:16:45.000Z,2.90
2023-03-02T06:19:11.655Z,2.90
2023-03-02T06:21:38.294Z,2.90
2023-03-02T06:24:05.002Z,3.00
2023-03-02T06:26:31.895Z,3.10
2023-03-02T06:28:58.902Z,3.70
2023-03-02T06:31:25.809Z,3.30
2023-03-02T06:33:52.474Z,3.40
2023-03-02T06:36:19.280Z,3.50
2023-03-02T06:38:45.948Z,3.60
2023-03-02T06:41:12.519Z,3.60
2023-03-02T06:43:39.561Z,3.60
2023-03-02T06:46:06.386Z,3.60
2023-03-02T06:48:33.055Z,3.70
2023-03-02T06:50:59.682Z,3.80
2023-03-02T06:53:26.497Z,4.00
2023-03-02T06:55:53.157Z,4.30
2023-03-02T06:58:19.829Z,5.10
2023-03-02T07:00:46.636Z,4.80
2023-03-02T07:03:13.410Z,5.10
2023-03-02T07:05:40.085Z,5.40
2023-03-02T07:08:06.720Z,5.60
2023-03-02T07:10:33.428Z,5.80
2023-03-02T07:13:00.238Z,6.20
2023-03-02T07:15:26.869Z,6.50
2023-03-02T07:17:53.551Z,6.90
2023-03-02T07:20:20.185Z,7.20
2023-03-02T07:22:46.860Z,7.30
2023-03-02T07:25:14.015Z,7.60
2023-03-02T07:27:40.972Z,7.70
2023-03-02T07:30:08.252Z,7.70
2023-03-02T07:32:34.973Z,7.80
2023-03-02T07:35:01.655Z,7.90
2023-03-02T07:37:28.224Z,8.10
2023-03-02T07:39:54.793Z,8.30
2023-03-02T07:42:21.479Z,8.40
2023-03-02T07:44:48.190Z,9.00
2023-03-02T07:47:14.836Z,9.50
2023-03-02T07:49:41.409Z,10.10
2023-03-02T07:52:08.035Z,10.50
2023-03-02T07:54:34.745Z,11.30
2023-03-02T07:57:01.434Z,11.80
2023-03-02T07:59:28.893Z,12.30
2023-03-02T08:01:56.289Z,12.50
2023-03-02T08:04:23.056Z,13.40
2023-03-02T08:06:49.801Z,14.00
2023-03-02T08:09:17.060Z,14.00
2023-03-02T08:11:44.787Z,14.10
2023-03-02T08:14:11.640Z,14.30
2023-03-02T08:16:39.137Z,15.00
2023-03-02T08:19:06.018Z,15.10
2023-03-02T08:21:33.860Z,15.60
2023-03-02T08:24:00.883Z,15.20
2023-03-02T08:26:27.653Z,17.30
2023-03-02T08:28:54.319Z,16.50
2023-03-02T08:31:20.968Z,16.40
2023-03-02T08:33:47.655Z,16.60
2023-03-02T08:36:15.576Z,16.30
2023-03-02T08:38:42.336Z,16.10
2023-03-02T08:41:11.193Z,16.50
2023-03-02T08:43:37.863Z,16.50
2023-03-02T08:46:04.560Z,16.50
2023-03-02T08:48:31.784Z,16.50
2023-03-02T08:51:02.457Z,16.20
2023-03-02T08:53:30.227Z,16.00
2023-03-02T08:55:56.821Z,16.40
2023-03-02T08:58:23.796Z,16.70
2023-03-02T09:00:50.526Z,17.10
2023-03-02T09:03:17.127Z,17.30
2023-03-02T09:05:43.888Z,17.60
2023-03-02T09:08:10.714Z,17.90
2023-03-02T09:10:37.348Z,18.10
2023-03-02T09:13:04.902Z,18.70
2023-03-02T09:15:32.702Z,19.40
2023-03-02T09:17:59.330Z,19.30
2023-03-02T09:20:26.001Z,19.50
2023-03-02T09:22:52.629Z,19.90
2023-03-02T09:25:19.326Z,21.00
2023-03-02T09:27:46.766Z,20.70
2023-03-02T09:30:14.350Z,20.80
2023-03-02T09:32:41.402Z,21.10
2023-03-02T09:35:08.447Z,21.80
2023-03-02T09:37:37.385Z,22.40
2023-03-02T09:40:05.262Z,22.40
2023-03-02T09:42:43.066Z,22.70
2023-03-02T09:45:29.235Z,23.20
2023-03-02T09:48:08.024Z,22.70
2023-03-02T09:50:34.746Z,23.30
2023-03-02T09:53:21.077Z,23.20
2023-03-02T09:55:51.074Z,22.90
2023-03-02T09:58:19.337Z,23.60
2023-03-02T10:00:46.671Z,23.50
2023-03-02T10:03:17.640Z,23.90
2023-03-02T10:05:46.063Z,23.90
2023-03-02T10:08:14.080Z,24.20
2023-03-02T10:10:44.649Z,24.40
2023-03-02T10:13:17.144Z,24.20
2023-03-02T10:15:43.817Z,24.30
2023-03-02T10:18:22.271Z,24.70
2023-03-02T10:20:55.452Z,24.90
2023-03-02T10:23:25.041Z,24.60
2023-03-02T10:26:01.126Z,24.70
2023-03-02T10:28:41.455Z,24.60
2023-03-02T10:31:09.717Z,24.60
2023-03-02T10:33:37.421Z,24.70
2023-03-02T10:36:05.747Z,24.70
2023-03-02T10:38:32.384Z,25.10
2023-03-02T10:41:03.359Z,24.60
2023-03-02T10:43:31.934Z,24.90
2023-03-02T10:45:59.575Z,25.20
2023-03-02T10:48:26.297Z,25.30
2023-03-02T10:50:54.255Z,25.70
2023-03-02T10:53:20.997Z,25.60
2023-03-02T10:55:49.490Z,25.50
2023-03-02T10:58:22.276Z,25.00
2023-03-02T11:01:02.673Z,24.80
2023-03-02T11:03:29.850Z,24.50
2023-03-02T11:05:56.990Z,24.80
2023-03-02T11:08:28.281Z,25.20
2023-03-02T11:11:00.942Z,25.10
2023-03-02T11:13:35.788Z,24.90
2023-03-02T11:16:22.282Z,24.30
2023-03-02T11:18:48.949Z,24.30
2023-03-02T11:21:15.505Z,24.70
2023-03-02T11:23:54.041Z,24.00
2023-03-02T11:26:38.889Z,24.40
2023-03-02T11:29:17.993Z,24.50
2023-03-02T11:31:52.242Z,24.30
2023-03-02T11:34:25.412Z,24.90
2023-03-02T11:37:00.136Z,24.60
2023-03-02T11:39:32.183Z,24.40
2023-03-02T11:41:58.810Z,24.60
2023-03-02T11:44:27.462Z,24.50
2023-03-02T11:46:59.239Z,23.90
2023-03-02T11:49:31.004Z,23.70
2023-03-02T11:51:59.042Z,24.40
2023-03-02T11:54:39.170Z,24.50
2023-03-02T11:57:06.163Z,23.80
2023-03-02T11:59:33.956Z,22.90
2023-03-02T12:02:01.252Z,22.80
2023-03-02T12:04:35.324Z,23.30
2023-03-02T12:07:03.453Z,22.90
2023-03-02T12:09:35.061Z,23.50
2023-03-02T12:12:28.325Z,23.80
2023-03-02T12:14:55.009Z,24.30
2023-03-02T12:17:30.779Z,24.60
2023-03-02T12:20:08.531Z,24.70
2023-03-02T12:22:35.960Z,24.90
2023-03-02T12:25:07.666Z,25.30
2023-03-02T12:27:44.820Z,25.70
2023-03-02T12:30:11.472Z,25.70
2023-03-02T12:32:38.224Z,26.10
2023-03-02T12:35:08.073Z,26.40
2023-03-02T12:37:53.596Z,25.70
2023-03-02T12:40:38.922Z,25.20
2023-03-02T12:43:05.553Z,25.50
2023-03-02T12:45:51.015Z,25.50
2023-03-02T12:48:20.686Z,25.80
2023-03-02T12:50:47.949Z,26.60
2023-03-02T12:53:17.029Z,26.60
2023-03-02T12:55:43.724Z,26.00
2023-03-02T12:58:18.780Z,25.80
2023-03-02T13:00:53.083Z,25.30
2023-03-02T13:03:19.836Z,25.80
2023-03-02T13:05:47.388Z,25.40
2023-03-02T13:08:13.966Z,25.10
2023-03-02T13:10:42.634Z,24.90
2023-03-02T13:13:18.177Z,25.10
2023-03-02T13:15:52.795Z,24.90
2023-03-02T13:18:23.564Z,24.80
2023-03-02T13:20:50.877Z,24.50
2023-03-02T13:23:18.741Z,25.00
2023-03-02T13:25:50.231Z,25.00
2023-03-02T13:28:30.506Z,25.20
2023-03-02T13:31:02.345Z,24.10
2023-03-02T13:33:29.630Z,23.80
2023-03-02T13:35:56.454Z,23.50
2023-03-02T13:38:24.296Z,22.80
2023-03-02T13:40:51.990Z,22.50
2023-03-02T13:43:33.394Z,22.50
2023-03-02T13:46:01.257Z,21.80
2023-03-02T13:48:28.245Z,21.50
2023-03-02T13:50:59.514Z,21.20
2023-03-02T13:53:27.301Z,21.20
2023-03-02T13:55:54.634Z,20.60
2023-03-02T13:58:22.602Z,20.70
2023-03-02T14:00:49.647Z,20.40
2023-03-02T14:03:24.510Z,20.70
2023-03-02T14:05:51.659Z,20.80
2023-03-02T14:08:18.506Z,20.70
2023-03-02T14:10:45.276Z,20.30
2023-03-02T14:13:16.582Z,19.90
2023-03-02T14:15:47.077Z,19.70
2023-03-02T14:18:28.921Z,19.10
2023-03-02T14:20:56.379Z,18.70
2023-03-02T14:23:23.827Z,18.50
2023-03-02T14:25:50.526Z,18.40
2023-03-02T14:28:21.602Z,18.30
2023-03-02T14:30:48.811Z,18.30
2023-03-02T14:33:18.427Z,18.30
2023-03-02T14:35:45.218Z,18.20
2023-03-02T14:38:12.042Z,17.80
2023-03-02T14:40:38.724Z,17.70
2023-03-02T14:43:05.325Z,17.60
2023-03-02T14:45:32.094Z,17.40
2023-03-02T14:47:58.755Z,17.20
2023-03-02T14:50:25.387Z,17.20
2023-03-02T14:52:55.076Z,17.10
2023-03-02T14:55:26.712Z,17.00
2023-03-02T14:57:55.508Z,16.90
2023-03-02T15:00:22.379Z,17.10
2023-03-02T15:02:49.182Z,16.80
2023-03-02T15:05:15.955Z,16.90
2023-03-02T15:07:43.032Z,17.00
2023-03-02T15:10:13.577Z,16.80
2023-03-02T15:12:40.200Z,16.80
2023-03-02T15:15:07.115Z,16.70
2023-03-02T15:17:33.737Z,17.00
2023-03-02T15:20:00.372Z,16.60
2023-03-02T15:22:27.005Z,16.50
2023-03-02T15:24:53.593Z,16.10
2023-03-02T15:27:22.623Z,16.00
2023-03-02T15:29:49.690Z,15.90
2023-03-02T15:32:16.637Z,15.90
2023-03-02T15:34:43.384Z,15.80
2023-03-02T15:37:11.396Z,15.70
2023-03-02T15:39:38.310Z,15.60
2023-03-02T15:42:05.801Z,15.70
2023-03-02T15:44:33.510Z,15.60
2023-03-02T15:47:00.714Z,15.60
2023-03-02T15:49:29.277Z,15.50
2023-03-02T15:51:59.467Z,15.30
2023-03-02T15:54:26.724Z,15.20
2023-03-02T15:56:53.572Z,15.20
2023-03-02T15:59:20.728Z,14.90
2023-03-02T16:01:47.479Z,14.80
2023-03-02T16:04:14.205Z,14.50
2023-03-02T16:06:41.179Z,14.70
2023-03-02T16:09:07.761Z,14.10
2023-03-02T16:11:34.768Z,14.00
2023-03-02T16:14:01.589Z,13.90
2023-03-02T16:16:28.577Z,13.80
2023-03-02T16:18:56.570Z,13.70
2023-03-02T16:21:23.894Z,13.70
2023-03-02T16:23:52.567Z,13.50
2023-03-02T16:26:20.441Z,13.40
2023-03-02T16:28:47.344Z,13.20
2023-03-02T16:31:18.306Z,13.10
2023-03-02T16:33:45.283Z,13.10
2023-03-02T16:36:11.955Z,13.00
2023-03-02T16:38:38.912Z,12.80
2023-03-02T16:41:11.817Z,12.70
2023-03-02T16:43:43.281Z,12.60
2023-03-02T16:46:09.942Z,12.50
2023-03-02T16:48:36.713Z,12.50
2023-03-02T16:51:04.851Z,12.30
2023-03-02T16:53:31.487Z,12.20
2023-03-02T16:55:58.133Z,12.10
2023-03-02T16:58:24.825Z,12.20
2023-03-02T17:00:51.558Z,11.80
2023-03-02T17:03:18.491Z,11.80
2023-03-02T17:05:45.121Z,11.70
2023-03-02T17:08:12.565Z,11.60
2023-03-02T17:10:39.780Z,11.50
2023-03-02T17:13:06.848Z,11.50
2023-03-02T17:15:33.534Z,11.40
2023-03-02T17:18:00.241Z,11.40
2023-03-02T17:20:27.166Z,11.20
2023-03-02T17:22:54.185Z,11.20
2023-03-02T17:25:21.084Z,11.10
2023-03-02T17:27:47.952Z,11.10
2023-03-02T17:30:15.164Z,11.10
2023-03-02T17:32:42.095Z,11.00
2023-03-02T17:35:11.004Z,10.90
2023-03-02T17:37:38.105Z,10.90
2023-03-02T17:40:05.591Z,10.80
2023-03-02T17:42:32.553Z,10.80
2023-03-02T17:44:59.140Z,10.70
2023-03-02T17:47:25.836Z,10.60
2023-03-02T17:49:52.551Z,10.60
2023-03-02T17:52:19.494Z,10.40
2023-03-02T17:54:46.153Z,10.40
2023-03-02T17:57:12.743Z,10.30
2023-03-02T17:59:39.391Z,10.20
2023-03-02T18:02:06.066Z,10.20
2023-03-02T18:04:32.693Z,10.20
2023-03-02T18:06:59.932Z,10.10
2023-03-02T18:09:26.623Z,10.00
2023-03-02T18:11:53.289Z,9.90
2023-03-02T18:14:20.343Z,9.90
2023-03-02T18:16:47.455Z,9.90
2023-03-02T18:19:14.213Z,9.80
2023-03-02T18:21:42.781Z,9.70
2023-03-02T18:24:09.511Z,9.60
2023-03-02T18:26:36.415Z,9.60
2023-03-02T18:29:03.238Z,9.50
2023-03-02T18:31:31.424Z,9.40
2023-03-02T18:33:58.987Z,9.40
2023-03-02T18:36:25.639Z,9.30
2023-03-02T18:38:53.850Z,9.20
2023-03-02T18:41:21.320Z,9.20
2023-03-02T18:43:49.244Z,9.20
2023-03-02T18:46:17.846Z,9.20
2023-03-02T18:48:44.479Z,9.20
2023-03-02T18:51:11.131Z,9.20
2023-03-02T18:53:38.117Z,9.10
2023-03-02T18:56:05.186Z,9.10
2023-03-02T18:58:34.130Z,9.00
2023-03-02T19:01:01.424Z,9.00
2023-03-02T19:03:28.266Z,8.80
2023-03-02T19:05:57.871Z,8.70
2023-03-02T19:08:25.288Z,8.70
2023-03-02T19:10:52.719Z,8.60
2023-03-02T19:13:19.422Z,8.50
2023-03-02T19:15:46.378Z,8.40
2023-03-02T19:18:17.049Z,8.40
2023-03-02T19:20:47.410Z,8.20
2023-03-02T19:23:14.305Z,8.20
2023-03-02T19:25:41.526Z,8.10
2023-03-02T19:28:08.511Z,8.00
2023-03-02T19:30:36.763Z,8.00
2023-03-02T19:33:06.481Z,8.00
2023-03-02T19:35:33.657Z,8.00
2023-03-02T19:38:00.475Z,8.10
2023-03-02T19:40:29.308Z,8.10
2023-03-02T19:42:56.122Z,8.00
2023-03-02T19:45:25.113Z,8.50
2023-03-02T19:47:51.736Z,9.30
2023-03-02T19:50:19.599Z,9.90
2023-03-02T19:52:46.233Z,10.50
2023-03-02T19:55:13.663Z,10.70
2023-03-02T19:57:41.079Z,10.50
2023-03-02T20:00:09.776Z,10.60
2023-03-02T20:02:37.259Z,10.00
2023-03-02T20:05:04.131Z,9.70
2023-03-02T20:07:30.748Z,9.20
2023-03-02T20:09:57.392Z,8.80
2023-03-02T20:12:23.959Z,8.70
2023-03-02T20:14:51.638Z,8.50
2023-03-02T20:17:19.656Z,8.20
2023-03-02T20:19:47.009Z,8.00
2023-03-02T20:22:14.083Z,7.90
2023-03-02T20:24:40.877Z,7.70
2023-03-02T20:27:08.305Z,7.70
2023-03-02T20:29:35.298Z,7.70
2023-03-02T20:32:03.726Z,7.50
2023-03-02T20:34:30.533Z,7.40
2023-03-02T20:36:57.640Z,7.30
2023-03-02T20:39:29.601Z,7.20
2023-03-02T20:41:56.543Z,7.10
2023-03-02T20:44:23.251Z,7.00
2023-03-02T20:46:51.816Z,6.90
2023-03-02T20:49:19.214Z,6.80
2023-03-02T20:51:52.629Z,6.80
2023-03-02T20:54:20.142Z,6.70
2023-03-02T20:56:46.797Z,6.70
2023-03-02T20:59:14.129Z,6.60
2023-03-02T21:01:41.352Z,6.50
2023-03-02T21:04:08.061Z,6.40
2023-03-02T21:06:34.777Z,6.30
2023-03-02T21:09:02.186Z,6.30
2023-03-02T21:11:30.195Z,6.30
2023-03-02T21:13:59.425Z,6.10
2023-03-02T21:16:28.048Z,6.00
2023-03-02T21:18:55.231Z,6.00
2023-03-02T21:21:29.828Z,5.90
2023-03-02T21:24:06.289Z,5.80
2023-03-02T21:26:32.962Z,5.80
2023-03-02T21:28:59.600Z,5.80
2023-03-02T21:31:26.361Z,5.80
2023-03-02T21:33:53.002Z,5.70
2023-03-02T21:36:21.943Z,5.70
2023-03-02T21:38:49.112Z,5.60
2023-03-02T21:41:15.790Z,5.60
2023-03-02T21:43:42.864Z,5.50
2023-03-02T21:46:12.448Z,5.50
2023-03-02T21:48:39.352Z,5.40
2023-03-02T21:51:07.195Z,5.40
2023-03-02T21:53:33.827Z,5.40
2023-03-02T21:56:01.822Z,5.90
2023-03-02T21:58:28.930Z,5.30
2023-03-02T22:00:55.570Z,5.30
2023-03-02T22:03:22.203Z,5.20
2023-03-02T22:05:48.777Z,5.20
2023-03-02T22:08:19.547Z,5.10
2023-03-02T22:10:47.633Z,5.00
2023-03-02T22:13:20.050Z,5.00
2023-03-02T22:15:47.671Z,5.00
2023-03-02T22:18:18.775Z,4.90
2023-03-02T22:20:48.234Z,4.80
2023-03-02T22:23:16.603Z,4.80
2023-03-02T22:25:43.667Z,4.90
2023-03-02T22:28:14.486Z,4.80
2023-03-02T22:30:41.275Z,4.80
2023-03-02T22:33:15.394Z,4.70
2023-03-02T22:35:42.610Z,4.70
2023-03-02T22:38:14.156Z,4.60
2023-03-02T22:40:41.365Z,4.60
2023-03-02T22:43:12.236Z,4.50
2023-03-02T22:45:39.881Z,4.50
2023-03-02T22:48:11.681Z,4.50
2023-03-02T22:50:38.372Z,5.10
2023-03-02T22:53:10.988Z,4.50
2023-03-02T22:55:38.876Z,4.40
2023-03-02T22:58:24.321Z,4.40
2023-03-02T23:00:51.342Z,4.50
2023-03-02T23:03:22.443Z,4.40
2023-03-02T23:05:53.046Z,4.30
2023-03-02T23:08:24.118Z,4.30
2023-03-02T23:10:52.157Z,4.20
2023-03-02T23:13:20.310Z,4.30
2023-03-02T23:15:47.549Z,4.30
2023-03-02T23:18:24.320Z,4.20
2023-03-02T23:20:51.255Z,4.20
2023-03-02T23:23:18.255Z,4.20
2023-03-02T23:25:44.840Z,4.20
2023-03-02T23:28:11.522Z,4.40
2023-03-02T23:30:38.395Z,4.10
2023-03-02T23:33:05.276Z,4.10
2023-03-02T23:35:31.915Z,4.10
2023-03-02T23:37:58.657Z,4.00
2023-03-02T23:40:25.472Z,3.90
2023-03-02T23:42:52.117Z,3.90
2023-03-02T23:45:18.691Z,4.00
2023-03-02T23:47:45.322Z,3.80
2023-03-02T23:50:12.909Z,3.80
2023-03-02T23:52:40.148Z,3.70
2023-03-02T23:55:07.976Z,3.70
2023-03-02T23:57:34.629Z,3.70
